createdAt,value
2023-01-13T00:04:48.565Z,99.90
2023-01-13T00:09:50.489Z,99.90
2023-01-13T00:14:52.352Z,99.90
2023-01-13T00:19:54.214Z,99.90
2023-01-13T00:24:58.258Z,99.90
2023-01-13T00:30:00.195Z,99.90
2023-01-13T00:35:03.940Z,99.90
2023-01-13T00:40:06.321Z,99.90
2023-01-13T00:45:08.446Z,99.90
2023-01-13T00:50:10.929Z,99.90
2023-01-13T00:55:12.757Z,99.90
2023-01-13T01:00:15.045Z,99.90
2023-01-13T01:05:16.999Z,99.90
2023-01-13T01:10:18.904Z,99.90
2023-01-13T01:15:21.041Z,99.90
2023-01-13T01:20:22.867Z,99.90
2023-01-13T01:25:24.735Z,99.90
2023-01-13T01:30:26.863Z,99.90
2023-01-13T01:35:28.924Z,99.90
2023-01-13T01:40:30.723Z,99.90
2023-01-13T01:45:32.803Z,99.90
2023-01-13T01:50:36.066Z,99.90
2023-01-13T01:55:38.803Z,99.90
2023-01-13T02:00:40.966Z,99.90
2023-01-13T02:05:42.930Z,99.90
2023-01-13T02:10:50.139Z,99.90
2023-01-13T02:16:00.671Z,99.90
2023-01-13T02:21:27.837Z,99.90
2023-01-13T02:26:29.608Z,99.90
2023-01-13T02:31:45.089Z,99.90
2023-01-13T02:36:55.715Z,99.90
2023-01-13T02:42:28.646Z,99.90
2023-01-13T02:47:34.150Z,99.90
2023-01-13T02:52:53.238Z,99.90
2023-01-13T02:57:58.693Z,99.90
2023-01-13T03:03:01.509Z,99.90
2023-01-13T03:08:43.177Z,99.90
2023-01-13T03:14:02.212Z,99.90
2023-01-13T03:19:09.589Z,99.90
2023-01-13T03:24:22.573Z,99.90
2023-01-13T03:29:45.624Z,99.90
2023-01-13T03:35:12.600Z,99.90
2023-01-13T03:40:26.129Z,99.90
2023-01-13T03:45:31.028Z,99.90
2023-01-13T03:50:40.894Z,99.90
2023-01-13T03:55:48.503Z,99.90
2023-01-13T04:01:15.622Z,99.90
2023-01-13T04:06:40.213Z,99.90
2023-01-13T04:11:53.550Z,99.90
2023-01-13T04:16:56.101Z,99.90
2023-01-13T04:21:57.835Z,99.90
2023-01-13T04:26:59.577Z,99.90
2023-01-13T04:32:01.319Z,99.90
2023-01-13T04:37:03.122Z,99.90
2023-01-13T04:42:04.987Z,99.90
2023-01-13T04:47:06.757Z,99.90
2023-01-13T04:52:08.555Z,99.90
2023-01-13T04:57:10.265Z,99.90
2023-01-13T05:02:19.531Z,99.90
2023-01-13T05:07:21.381Z,99.90
2023-01-13T05:12:42.051Z,99.90
2023-01-13T05:17:44.073Z,99.90
2023-01-13T05:23:04.648Z,99.90
2023-01-13T05:28:07.504Z,99.90
2023-01-13T05:33:10.732Z,99.90
2023-01-13T05:38:13.524Z,99.90
2023-01-13T05:43:20.577Z,99.90
2023-01-13T05:48:25.529Z,99.90
2023-01-13T05:53:27.349Z,99.90
2023-01-13T05:58:29.081Z,99.90
2023-01-13T06:03:31.173Z,99.90
2023-01-13T06:08:33.167Z,99.90
2023-01-13T06:13:34.992Z,99.90
2023-01-13T06:18:36.672Z,99.90
2023-01-13T06:23:38.650Z,99.90
2023-01-13T06:28:40.537Z,99.90
2023-01-13T06:33:50.743Z,99.90
2023-01-13T06:38:57.207Z,99.90
2023-01-13T06:43:58.942Z,99.90
2023-01-13T06:49:00.657Z,99.90
2023-01-13T06:54:02.498Z,99.90
2023-01-13T06:59:04.216Z,99.90
2023-01-13T07:04:05.941Z,99.90
2023-01-13T07:09:07.664Z,99.90
2023-01-13T07:14:28.353Z,99.90
2023-01-13T07:19:30.214Z,99.90
2023-01-13T07:24:31.925Z,99.90
2023-01-13T07:29:33.627Z,99.90
2023-01-13T07:34:35.632Z,99.90
2023-01-13T07:39:37.358Z,99.90
2023-01-13T07:44:39.071Z,99.90
2023-01-13T07:49:40.757Z,99.90
2023-01-13T07:54:42.453Z,99.90
2023-01-13T07:59:44.224Z,99.90
2023-01-13T08:04:45.993Z,99.90
2023-01-13T08:09:47.722Z,99.90
2023-01-13T08:14:50.841Z,99.90
2023-01-13T08:19:52.553Z,99.90
2023-01-13T08:24:54.266Z,99.90
2023-01-13T08:29:56.015Z,99.90
2023-01-13T08:34:57.716Z,99.90
2023-01-13T08:39:59.385Z,99.90
2023-01-13T08:45:01.184Z,99.90
2023-01-13T08:50:03.534Z,99.90
2023-01-13T08:55:05.849Z,99.90
2023-01-13T09:00:10.347Z,99.90
2023-01-13T09:05:12.151Z,99.90
2023-01-13T09:10:13.883Z,99.90
2023-01-13T09:15:18.370Z,99.90
2023-01-13T09:20:20.121Z,99.90
2023-01-13T09:25:21.832Z,99.90
2023-01-13T09:30:24.081Z,99.90
2023-01-13T09:35:25.809Z,99.90
2023-01-13T09:40:27.739Z,99.90
2023-01-13T09:45:37.280Z,99.90
2023-01-13T09:50:41.861Z,99.90
2023-01-13T09:55:45.310Z,99.90
2023-01-13T10:01:11.776Z,99.90
2023-01-13T10:06:42.126Z,99.90
2023-01-13T10:12:05.353Z,99.90
2023-01-13T10:17:31.679Z,99.90
2023-01-13T10:22:39.222Z,99.90
2023-01-13T10:27:41.762Z,99.90
2023-01-13T10:32:47.302Z,99.90
2023-01-13T10:37:57.398Z,99.90
2023-01-13T10:43:06.676Z,99.90
2023-01-13T10:48:15.405Z,99.90
2023-01-13T10:53:24.283Z,99.90
2023-01-13T10:58:26.582Z,99.90
2023-01-13T11:03:41.423Z,99.90
2023-01-13T11:08:49.212Z,99.90
2023-01-13T11:14:11.582Z,99.90
2023-01-13T11:19:18.210Z,99.90
2023-01-13T11:24:27.633Z,99.90
2023-01-13T11:29:38.241Z,99.90
2023-01-13T11:34:42.515Z,99.90
2023-01-13T11:39:49.276Z,99.90
2023-01-13T11:44:54.464Z,99.90
2023-01-13T11:49:56.425Z,99.90
2023-01-13T11:55:13.692Z,99.90
2023-01-13T12:00:28.021Z,99.90
2023-01-13T12:05:44.280Z,99.90
2023-01-13T12:11:18.115Z,99.90
2023-01-13T12:16:31.122Z,99.90
2023-01-13T12:22:08.935Z,99.90
2023-01-13T12:27:18.077Z,99.90
2023-01-13T12:32:24.257Z,99.90
2023-01-13T12:37:33.300Z,99.90
2023-01-13T12:42:59.624Z,99.90
2023-01-13T12:48:01.578Z,99.90
2023-01-13T12:53:28.774Z,99.90
2023-01-13T12:58:30.555Z,99.90
2023-01-13T13:03:35.526Z,99.90
2023-01-13T13:08:43.110Z,99.90
2023-01-13T13:13:48.247Z,99.90
2023-01-13T13:18:50.210Z,99.90
2023-01-13T13:23:55.117Z,99.90
2023-01-13T13:28:56.785Z,99.90
2023-01-13T13:34:13.248Z,98.50
2023-01-13T13:39:46.779Z,97.70
2023-01-13T13:45:09.029Z,96.30
2023-01-13T13:50:20.233Z,94.70
2023-01-13T13:55:25.193Z,95.00
2023-01-13T14:00:37.982Z,94.70
2023-01-13T14:05:39.871Z,94.40
2023-01-13T14:10:44.844Z,94.90
2023-01-13T14:15:49.270Z,95.90
2023-01-13T14:21:05.052Z,96.10
2023-01-13T14:26:12.953Z,95.80
2023-01-13T14:31:15.111Z,96.50
2023-01-13T14:36:21.020Z,96.00
2023-01-13T14:41:26.717Z,95.90
2023-01-13T14:46:42.903Z,96.80
2023-01-13T14:51:45.169Z,96.90
2023-01-13T14:56:51.363Z,96.90
2023-01-13T15:01:54.689Z,97.40
2023-01-13T15:06:58.005Z,97.80
2023-01-13T15:12:00.372Z,98.30
2023-01-13T15:17:03.252Z,98.80
2023-01-13T15:22:04.944Z,99.70
2023-01-13T15:27:17.432Z,99.90
2023-01-13T15:32:21.550Z,99.90
2023-01-13T15:37:25.583Z,99.90
2023-01-13T15:42:45.806Z,99.90
2023-01-13T15:47:48.217Z,99.90
2023-01-13T15:52:49.970Z,99.90
2023-01-13T15:57:51.700Z,99.90
2023-01-13T16:02:53.540Z,99.90
2023-01-13T16:07:55.328Z,99.90
2023-01-13T16:12:57.229Z,99.90
2023-01-13T16:18:01.048Z,99.90
2023-01-13T16:23:02.896Z,99.90
2023-01-13T16:28:04.780Z,99.90
2023-01-13T16:33:06.507Z,99.90
2023-01-13T16:38:15.168Z,99.90
2023-01-13T16:43:16.899Z,99.90
2023-01-13T16:48:20.363Z,99.90
2023-01-13T16:53:22.081Z,99.90
2023-01-13T16:58:23.881Z,99.90
2023-01-13T17:03:25.878Z,99.90
2023-01-13T17:08:27.610Z,99.90
2023-01-13T17:13:29.320Z,99.90
2023-01-13T17:18:31.026Z,99.90
2023-01-13T17:23:33.383Z,99.90
2023-01-13T17:28:35.137Z,99.90
2023-01-13T17:33:37.149Z,99.90
2023-01-13T17:38:38.853Z,99.90
2023-01-13T17:43:40.654Z,99.90
2023-01-13T17:48:42.367Z,99.90
2023-01-13T17:53:45.504Z,99.90
2023-01-13T17:58:47.231Z,99.90
2023-01-13T18:03:49.558Z,99.90
2023-01-13T18:08:51.641Z,99.90
2023-01-13T18:13:56.686Z,99.90
2023-01-13T18:19:18.068Z,99.90
2023-01-13T18:24:38.560Z,99.90
2023-01-13T18:29:40.259Z,99.90
2023-01-13T18:34:41.995Z,99.90
2023-01-13T18:39:43.895Z,99.90
2023-01-13T18:44:45.634Z,99.90
2023-01-13T18:49:47.440Z,99.90
2023-01-13T18:54:49.222Z,99.90
2023-01-13T18:59:52.127Z,99.90
2023-01-13T19:04:54.408Z,99.90
2023-01-13T19:09:56.292Z,99.90
2023-01-13T19:14:58.805Z,99.90
2023-01-13T19:20:01.108Z,99.90
2023-01-13T19:25:05.950Z,99.90
2023-01-13T19:30:08.488Z,99.90
2023-01-13T19:35:12.944Z,99.90
2023-01-13T19:40:14.836Z,99.90
2023-01-13T19:45:31.217Z,99.90
2023-01-13T19:50:38.418Z,99.90
2023-01-13T19:55:44.963Z,99.90
2023-01-13T20:00:48.313Z,99.90
2023-01-13T20:05:53.904Z,99.90
2023-01-13T20:11:15.602Z,99.90
2023-01-13T20:16:17.810Z,99.90
2023-01-13T20:21:19.990Z,99.90
2023-01-13T20:26:21.746Z,99.90
2023-01-13T20:31:23.565Z,99.90
2023-01-13T20:36:32.853Z,99.90
2023-01-13T20:41:53.124Z,99.90
2023-01-13T20:46:55.767Z,99.90
2023-01-13T20:51:58.111Z,99.90
2023-01-13T20:57:00.525Z,99.90
2023-01-13T21:02:02.999Z,99.90
2023-01-13T21:07:05.102Z,99.90
2023-01-13T21:12:26.199Z,99.90
2023-01-13T21:17:46.758Z,99.90
2023-01-13T21:22:49.217Z,99.90
2023-01-13T21:28:00.206Z,99.90
2023-01-13T21:33:03.954Z,99.90
2023-01-13T21:38:05.689Z,99.90
2023-01-13T21:43:30.253Z,99.90
2023-01-13T21:48:32.031Z,99.90
2023-01-13T21:53:33.730Z,99.90
2023-01-13T21:58:35.466Z,99.90
2023-01-13T22:03:57.206Z,99.90
2023-01-13T22:09:00.960Z,99.90
2023-01-13T22:14:06.448Z,99.90
2023-01-13T22:19:09.883Z,99.90
2023-01-13T22:24:11.996Z,99.90
2023-01-13T22:29:13.719Z,99.90
2023-01-13T22:34:15.403Z,99.90
2023-01-13T22:39:17.130Z,99.90
2023-01-13T22:44:20.078Z,99.90
2023-01-13T22:49:21.906Z,99.90
2023-01-13T22:54:23.639Z,99.90
2023-01-13T22:59:25.549Z,99.90
2023-01-13T23:04:27.416Z,99.90
2023-01-13T23:09:29.957Z,99.90
2023-01-13T23:14:31.764Z,99.90
2023-01-13T23:19:33.512Z,99.90
2023-01-13T23:24:35.204Z,99.90
2023-01-13T23:29:37.085Z,99.90
2023-01-13T23:34:38.801Z,99.90
2023-01-13T23:39:40.576Z,99.90
2023-01-13T23:44:42.300Z,99.90
2023-01-13T23:49:44.078Z,99.90
2023-01-13T23:54:45.850Z,99.90
2023-01-13T23:59:47.601Z,99.90
